createdAt,value
2022-12-05T00:01:26.068Z,2.74
2022-12-05T00:03:55.410Z,3.05
2022-12-05T00:06:23.144Z,2.78
2022-12-05T00:08:50.317Z,2.90
2022-12-05T00:11:20.038Z,2.74
2022-12-05T00:13:48.413Z,2.86
2022-12-05T00:16:18.018Z,2.89
2022-12-05T00:18:45.551Z,3.13
2022-12-05T00:21:17.245Z,3.03
2022-12-05T00:23:44.562Z,3.14
2022-12-05T00:26:11.755Z,3.10
2022-12-05T00:28:39.523Z,3.18
2022-12-05T00:31:09.439Z,3.07
2022-12-05T00:33:36.796Z,3.31
2022-12-05T00:36:13.465Z,3.11
2022-12-05T00:38:41.542Z,3.05
2022-12-05T00:41:10.750Z,3.26
2022-12-05T00:43:37.998Z,3.45
2022-12-05T00:46:07.127Z,3.54
2022-12-05T00:48:35.624Z,3.52
2022-12-05T00:51:05.936Z,3.50
2022-12-05T00:53:33.796Z,3.05
2022-12-05T00:56:12.651Z,3.09
2022-12-05T00:58:39.883Z,2.67
2022-12-05T01:01:11.154Z,2.67
2022-12-05T01:03:38.576Z,2.56
2022-12-05T01:06:06.435Z,2.43
2022-12-05T01:08:34.802Z,2.93
2022-12-05T01:11:01.547Z,2.95
2022-12-05T01:13:29.185Z,3.18
2022-12-05T01:15:55.890Z,3.06
2022-12-05T01:18:23.573Z,3.04
2022-12-05T01:20:51.259Z,3.04
2022-12-05T01:23:18.282Z,2.56
2022-12-05T01:25:47.900Z,2.85
2022-12-05T01:28:15.889Z,3.09
2022-12-05T01:30:47.974Z,3.04
2022-12-05T01:33:14.707Z,2.72
2022-12-05T01:35:41.940Z,2.84
2022-12-05T01:38:10.667Z,2.75
2022-12-05T01:40:37.810Z,2.83
2022-12-05T01:43:06.701Z,2.68
2022-12-05T01:45:39.613Z,2.84
2022-12-05T01:48:11.463Z,2.96
2022-12-05T01:50:38.608Z,2.95
2022-12-05T01:53:05.682Z,2.99
2022-12-05T01:55:34.480Z,3.01
2022-12-05T01:58:02.560Z,3.14
2022-12-05T02:00:29.335Z,3.18
2022-12-05T02:02:59.432Z,3.13
2022-12-05T02:05:30.219Z,3.08
2022-12-05T02:07:59.374Z,3.10
2022-12-05T02:10:27.972Z,2.96
2022-12-05T02:12:55.103Z,2.99
2022-12-05T02:15:21.690Z,3.11
2022-12-05T02:17:57.265Z,3.17
2022-12-05T02:20:41.033Z,3.19
2022-12-05T02:23:18.526Z,3.03
2022-12-05T02:25:45.235Z,2.93
2022-12-05T02:28:44.548Z,3.01
2022-12-05T02:31:18.701Z,3.13
2022-12-05T02:33:56.996Z,3.07
2022-12-05T02:36:45.590Z,3.10
2022-12-05T02:39:40.818Z,3.07
2022-12-05T02:42:19.955Z,2.84
2022-12-05T02:45:10.128Z,2.84
2022-12-05T02:47:42.452Z,2.99
2022-12-05T02:50:12.380Z,3.11
2022-12-05T02:52:39.965Z,2.91
2022-12-05T02:55:08.618Z,2.86
2022-12-05T02:57:37.675Z,2.86
2022-12-05T03:00:05.312Z,2.87
2022-12-05T03:02:34.902Z,2.97
2022-12-05T03:05:41.057Z,2.83
2022-12-05T03:08:12.025Z,2.77
2022-12-05T03:10:42.250Z,2.72
2022-12-05T03:13:16.203Z,2.51
2022-12-05T03:15:48.092Z,2.47
2022-12-05T03:18:21.637Z,2.65
2022-12-05T03:20:54.623Z,2.69
2022-12-05T03:23:26.558Z,2.90
2022-12-05T03:26:20.928Z,2.74
2022-12-05T03:28:51.026Z,2.78
2022-12-05T03:31:23.809Z,2.75
2022-12-05T03:33:55.329Z,2.76
2022-12-05T03:36:33.220Z,2.71
2022-12-05T03:39:18.631Z,2.84
2022-12-05T03:41:55.905Z,2.75
2022-12-05T03:44:37.681Z,2.84
2022-12-05T03:47:11.030Z,2.83
2022-12-05T03:49:45.956Z,2.74
2022-12-05T03:52:15.429Z,2.44
2022-12-05T03:54:46.756Z,2.12
2022-12-05T03:57:22.350Z,2.38
2022-12-05T03:59:57.782Z,2.58
2022-12-05T04:02:28.443Z,2.68
2022-12-05T04:05:02.016Z,2.63
2022-12-05T04:07:32.787Z,2.70
2022-12-05T04:10:06.095Z,2.60
2022-12-05T04:12:36.452Z,2.78
2022-12-05T04:15:10.795Z,2.72
2022-12-05T04:17:43.483Z,2.74
2022-12-05T04:20:36.239Z,2.63
2022-12-05T04:23:03.713Z,2.68
2022-12-05T04:25:39.649Z,2.43
2022-12-05T04:28:24.998Z,2.58
2022-12-05T04:30:51.649Z,2.51
2022-12-05T04:33:46.895Z,2.59
2022-12-05T04:36:22.497Z,2.41
2022-12-05T04:38:54.407Z,2.09
2022-12-05T04:41:33.953Z,2.29
2022-12-05T04:44:06.181Z,2.35
2022-12-05T04:46:34.013Z,2.28
2022-12-05T04:49:05.706Z,2.42
2022-12-05T04:51:35.442Z,2.60
2022-12-05T04:54:21.358Z,2.31
2022-12-05T04:56:54.529Z,2.21
2022-12-05T04:59:23.462Z,2.37
2022-12-05T05:01:55.785Z,2.44
2022-12-05T05:04:29.976Z,2.47
2022-12-05T05:06:57.120Z,2.43
2022-12-05T05:09:23.759Z,2.24
2022-12-05T05:11:51.500Z,2.44
2022-12-05T05:14:18.153Z,2.36
2022-12-05T05:16:44.963Z,2.51
2022-12-05T05:19:12.196Z,2.49
2022-12-05T05:21:41.335Z,2.54
2022-12-05T05:24:10.751Z,2.67
2022-12-05T05:26:40.924Z,2.59
2022-12-05T05:29:07.949Z,2.45
2022-12-05T05:31:35.466Z,2.36
2022-12-05T05:34:09.131Z,2.40
2022-12-05T05:36:36.656Z,2.58
2022-12-05T05:39:05.462Z,2.70
2022-12-05T05:41:34.387Z,2.53
2022-12-05T05:44:01.924Z,2.41
2022-12-05T05:46:31.907Z,2.18
2022-12-05T05:49:01.835Z,2.10
2022-12-05T05:51:29.540Z,1.96
2022-12-05T05:53:57.455Z,1.97
2022-12-05T05:56:24.226Z,2.33
2022-12-05T05:59:00.228Z,2.42
2022-12-05T06:01:27.920Z,2.23
2022-12-05T06:03:54.809Z,2.35
2022-12-05T06:06:22.481Z,2.10
2022-12-05T06:08:49.215Z,2.37
2022-12-05T06:11:27.319Z,2.39
2022-12-05T06:14:01.278Z,1.99
2022-12-05T06:16:30.087Z,2.02
2022-12-05T06:18:57.312Z,2.09
2022-12-05T06:21:24.447Z,2.17
2022-12-05T06:23:51.574Z,1.99
2022-12-05T06:26:20.529Z,2.51
2022-12-05T06:28:47.963Z,2.58
2022-12-05T06:31:20.089Z,2.59
2022-12-05T06:33:47.739Z,2.77
2022-12-05T06:36:17.054Z,2.55
2022-12-05T06:38:43.962Z,2.34
2022-12-05T06:41:15.498Z,2.10
2022-12-05T06:43:43.275Z,2.09
2022-12-05T06:46:12.147Z,2.19
2022-12-05T06:48:39.607Z,2.26
2022-12-05T06:51:10.194Z,2.18
2022-12-05T06:53:37.175Z,2.13
2022-12-05T06:56:08.216Z,2.11
2022-12-05T06:58:34.931Z,2.09
2022-12-05T07:01:20.321Z,2.21
2022-12-05T07:03:49.192Z,2.01
2022-12-05T07:06:17.007Z,2.02
2022-12-05T07:08:44.978Z,2.06
2022-12-05T07:11:11.943Z,2.14
2022-12-05T07:13:38.659Z,2.10
2022-12-05T07:16:07.436Z,2.31
2022-12-05T07:18:35.568Z,2.35
2022-12-05T07:21:12.284Z,2.17
2022-12-05T07:23:40.560Z,2.27
2022-12-05T07:26:09.161Z,2.22
2022-12-05T07:28:36.115Z,2.22
2022-12-05T07:31:05.248Z,2.10
2022-12-05T07:33:31.922Z,2.11
2022-12-05T07:36:17.003Z,2.21
2022-12-05T07:38:44.746Z,2.45
2022-12-05T07:41:17.161Z,2.57
2022-12-05T07:43:43.883Z,2.51
2022-12-05T07:46:13.902Z,2.39
2022-12-05T07:48:41.013Z,2.50
2022-12-05T07:51:10.345Z,2.42
2022-12-05T07:53:38.582Z,2.62
2022-12-05T07:56:07.189Z,2.74
2022-12-05T07:58:35.553Z,2.86
2022-12-05T08:01:10.650Z,2.97
2022-12-05T08:03:38.308Z,2.69
2022-12-05T08:06:10.187Z,2.65
2022-12-05T08:08:37.366Z,2.57
2022-12-05T08:11:06.410Z,2.74
2022-12-05T08:13:33.675Z,2.97
2022-12-05T08:16:02.632Z,2.97
2022-12-05T08:18:29.391Z,2.98
2022-12-05T08:20:56.036Z,2.98
2022-12-05T08:23:22.984Z,2.78
2022-12-05T08:25:49.674Z,2.64
2022-12-05T08:28:16.342Z,2.70
2022-12-05T08:30:43.125Z,2.60
2022-12-05T08:33:09.788Z,2.55
2022-12-05T08:35:37.941Z,2.54
2022-12-05T08:38:04.594Z,2.51
2022-12-05T08:40:31.465Z,2.54
2022-12-05T08:42:58.297Z,2.56
2022-12-05T08:45:24.947Z,2.61
2022-12-05T08:47:51.597Z,2.47
2022-12-05T08:50:18.429Z,2.59
2022-12-05T08:52:45.300Z,2.68
2022-12-05T08:55:11.966Z,2.68
2022-12-05T08:57:38.602Z,2.67
2022-12-05T09:00:06.903Z,2.64
2022-12-05T09:02:34.182Z,2.54
2022-12-05T09:05:19.138Z,2.81
2022-12-05T09:07:47.583Z,2.86
2022-12-05T09:10:14.448Z,2.80
2022-12-05T09:12:41.174Z,2.90
2022-12-05T09:15:09.289Z,2.77
2022-12-05T09:17:35.996Z,2.90
2022-12-05T09:20:03.147Z,2.90
2022-12-05T09:22:29.826Z,2.66
2022-12-05T09:24:56.844Z,2.87
2022-12-05T09:27:23.730Z,2.90
2022-12-05T09:29:50.373Z,2.98
2022-12-05T09:32:17.059Z,3.17
2022-12-05T09:34:43.800Z,3.27
2022-12-05T09:37:37.086Z,3.24
2022-12-05T09:39:57.125Z,3.53
2022-12-05T09:42:36.890Z,3.46
2022-12-05T09:45:09.827Z,3.72
2022-12-05T09:48:00.187Z,3.70
2022-12-05T09:50:30.315Z,3.92
2022-12-05T09:53:14.884Z,3.89
2022-12-05T09:55:44.253Z,3.67
2022-12-05T09:58:43.216Z,3.58
2022-12-05T10:01:34.923Z,3.27
2022-12-05T10:04:04.298Z,3.38
2022-12-05T10:06:39.245Z,3.29
2022-12-05T10:09:12.042Z,3.11
2022-12-05T10:11:54.781Z,3.21
2022-12-05T10:14:56.492Z,3.02
2022-12-05T10:17:28.872Z,3.03
2022-12-05T10:19:59.670Z,3.27
2022-12-05T10:22:46.123Z,3.16
2022-12-05T10:25:17.423Z,3.43
2022-12-05T10:27:50.934Z,3.43
2022-12-05T10:30:18.704Z,3.62
2022-12-05T10:33:11.693Z,3.73
2022-12-05T10:35:40.756Z,3.44
2022-12-05T10:38:10.280Z,3.48
2022-12-05T10:40:43.479Z,3.36
2022-12-05T10:43:14.487Z,3.45
2022-12-05T10:45:46.940Z,3.34
2022-12-05T10:48:17.491Z,3.59
2022-12-05T10:50:48.669Z,3.62
2022-12-05T10:53:19.889Z,3.85
2022-12-05T10:56:21.560Z,3.78
2022-12-05T10:58:34.727Z,3.78
2022-12-05T11:01:10.165Z,3.57
2022-12-05T11:03:39.594Z,3.28
2022-12-05T11:06:25.505Z,3.38
2022-12-05T11:09:04.548Z,3.13
2022-12-05T11:11:33.674Z,3.42
2022-12-05T11:14:02.129Z,3.59
2022-12-05T11:16:39.214Z,3.57
2022-12-05T11:19:27.802Z,3.47
2022-12-05T11:21:55.393Z,3.36
2022-12-05T11:24:27.074Z,3.72
2022-12-05T11:26:54.054Z,3.71
2022-12-05T11:29:39.446Z,3.80
2022-12-05T11:32:06.884Z,3.82
2022-12-05T11:34:39.880Z,3.80
2022-12-05T11:37:25.263Z,3.65
2022-12-05T11:39:52.479Z,3.74
2022-12-05T11:42:31.835Z,4.00
2022-12-05T11:45:13.506Z,3.76
2022-12-05T11:48:00.340Z,3.40
2022-12-05T11:50:46.257Z,3.89
2022-12-05T11:53:31.324Z,3.93
2022-12-05T11:56:03.978Z,3.70
2022-12-05T11:58:57.283Z,3.40
2022-12-05T12:02:08.434Z,3.44
2022-12-05T12:04:50.039Z,3.57
2022-12-05T12:07:23.092Z,3.51
2022-12-05T12:10:09.962Z,3.91
2022-12-05T12:12:49.388Z,3.73
2022-12-05T12:15:42.976Z,3.83
2022-12-05T12:18:39.599Z,4.05
2022-12-05T12:21:40.699Z,3.63
2022-12-05T12:24:16.474Z,3.62
2022-12-05T12:26:46.072Z,4.02
2022-12-05T12:29:50.484Z,4.01
2022-12-05T12:32:33.970Z,4.16
2022-12-05T12:35:19.997Z,4.29
2022-12-05T12:38:18.750Z,4.24
2022-12-05T12:40:53.198Z,4.12
2022-12-05T12:43:54.343Z,3.94
2022-12-05T12:46:46.467Z,4.02
2022-12-05T12:49:15.880Z,4.19
2022-12-05T12:51:53.483Z,4.11
2022-12-05T12:55:13.790Z,4.10
2022-12-05T12:57:49.761Z,3.92
2022-12-05T13:00:24.475Z,4.02
2022-12-05T13:03:00.664Z,4.29
2022-12-05T13:05:36.253Z,4.11
2022-12-05T13:08:16.433Z,4.23
2022-12-05T13:10:45.561Z,4.31
2022-12-05T13:13:20.911Z,4.34
2022-12-05T13:16:00.921Z,4.44
2022-12-05T13:18:28.035Z,4.54
2022-12-05T13:20:58.782Z,4.47
2022-12-05T13:23:31.277Z,4.34
2022-12-05T13:26:00.425Z,4.38
2022-12-05T13:28:31.656Z,4.52
2022-12-05T13:31:03.901Z,4.62
2022-12-05T13:33:34.676Z,4.43
2022-12-05T13:36:30.030Z,4.58
2022-12-05T13:39:22.215Z,4.61
2022-12-05T13:42:11.164Z,4.67
2022-12-05T13:44:45.539Z,4.71
2022-12-05T13:47:54.296Z,4.65
2022-12-05T13:50:34.129Z,4.51
2022-12-05T13:53:23.576Z,4.60
2022-12-05T13:56:02.908Z,4.74
2022-12-05T13:58:47.943Z,4.71
2022-12-05T14:01:26.929Z,4.70
2022-12-05T14:03:57.291Z,4.69
2022-12-05T14:06:39.009Z,4.70
2022-12-05T14:09:12.225Z,4.74
2022-12-05T14:11:38.892Z,4.56
2022-12-05T14:14:10.183Z,4.59
2022-12-05T14:16:44.504Z,4.52
2022-12-05T14:19:40.982Z,4.62
2022-12-05T14:22:22.870Z,4.51
2022-12-05T14:25:05.086Z,4.60
2022-12-05T14:27:50.814Z,4.55
2022-12-05T14:30:25.758Z,4.53
2022-12-05T14:32:54.351Z,4.32
2022-12-05T14:35:29.090Z,4.30
2022-12-05T14:38:01.255Z,4.39
2022-12-05T14:40:36.653Z,4.42
2022-12-05T14:43:26.484Z,4.48
2022-12-05T14:45:53.154Z,4.50
2022-12-05T14:48:20.352Z,4.58
2022-12-05T14:50:49.569Z,4.54
2022-12-05T14:53:27.858Z,4.19
2022-12-05T14:56:02.204Z,4.24
2022-12-05T14:58:52.293Z,4.33
2022-12-05T15:01:31.215Z,4.39
2022-12-05T15:04:03.170Z,4.46
2022-12-05T15:06:32.130Z,4.38
2022-12-05T15:09:35.314Z,4.21
2022-12-05T15:11:52.348Z,4.22
2022-12-05T15:14:22.732Z,4.19
2022-12-05T15:16:54.101Z,4.26
2022-12-05T15:19:30.345Z,4.23
2022-12-05T15:22:00.454Z,4.24
2022-12-05T15:24:27.615Z,3.83
2022-12-05T15:26:56.896Z,4.13
2022-12-05T15:29:26.517Z,4.15
2022-12-05T15:31:54.460Z,4.22
2022-12-05T15:34:45.224Z,4.35
2022-12-05T15:37:15.515Z,4.41
2022-12-05T15:40:00.299Z,4.42
2022-12-05T15:42:37.076Z,4.39
2022-12-05T15:45:15.561Z,4.27
2022-12-05T15:48:08.006Z,4.24
2022-12-05T15:50:41.238Z,4.16
2022-12-05T15:53:23.208Z,4.16
2022-12-05T15:56:01.957Z,4.28
2022-12-05T15:58:43.880Z,4.20
2022-12-05T16:01:19.915Z,4.17
2022-12-05T16:03:59.937Z,4.22
2022-12-05T16:06:40.423Z,4.25
2022-12-05T16:09:13.361Z,4.00
2022-12-05T16:11:40.492Z,3.94
2022-12-05T16:14:08.388Z,4.24
2022-12-05T16:16:39.005Z,4.26
2022-12-05T16:19:16.090Z,4.18
2022-12-05T16:21:46.633Z,4.26
2022-12-05T16:24:19.241Z,4.32
2022-12-05T16:27:14.456Z,4.27
2022-12-05T16:29:41.435Z,4.27
2022-12-05T16:32:34.823Z,4.17
2022-12-05T16:35:01.580Z,4.29
2022-12-05T16:37:30.286Z,4.28
2022-12-05T16:39:57.586Z,4.27
2022-12-05T16:42:29.137Z,4.31
2022-12-05T16:45:02.335Z,4.33
2022-12-05T16:47:41.693Z,4.32
2022-12-05T16:50:29.419Z,4.11
2022-12-05T16:53:02.305Z,4.18
2022-12-05T16:55:33.106Z,4.22
2022-12-05T16:58:03.431Z,4.32
2022-12-05T17:00:31.482Z,4.24
2022-12-05T17:03:18.417Z,4.35
2022-12-05T17:05:44.924Z,4.37
2022-12-05T17:08:11.728Z,4.40
2022-12-05T17:10:39.570Z,4.37
2022-12-05T17:13:06.978Z,4.46
2022-12-05T17:15:36.144Z,4.51
2022-12-05T17:18:11.842Z,4.49
2022-12-05T17:20:41.580Z,4.54
2022-12-05T17:23:14.352Z,4.32
2022-12-05T17:25:53.533Z,4.33
2022-12-05T17:28:21.318Z,4.15
2022-12-05T17:30:48.221Z,3.93
2022-12-05T17:33:17.240Z,3.94
2022-12-05T17:35:44.553Z,3.75
2022-12-05T17:38:12.213Z,3.70
2022-12-05T17:40:39.546Z,3.85
2022-12-05T17:43:06.650Z,3.94
2022-12-05T17:45:33.695Z,3.91
2022-12-05T17:48:00.436Z,3.94
2022-12-05T17:50:28.016Z,4.10
2022-12-05T17:52:56.872Z,4.06
2022-12-05T17:55:28.807Z,4.00
2022-12-05T17:57:56.027Z,4.01
2022-12-05T18:00:24.451Z,4.05
2022-12-05T18:02:52.580Z,4.05
2022-12-05T18:05:19.460Z,4.21
2022-12-05T18:07:47.056Z,4.29
2022-12-05T18:10:19.882Z,4.37
2022-12-05T18:12:47.448Z,4.29
2022-12-05T18:15:15.247Z,4.02
2022-12-05T18:17:42.438Z,3.75
2022-12-05T18:20:12.349Z,3.74
2022-12-05T18:22:39.054Z,3.85
2022-12-05T18:25:06.613Z,3.90
2022-12-05T18:27:35.303Z,3.90
2022-12-05T18:30:03.790Z,3.97
2022-12-05T18:32:30.671Z,4.04
2022-12-05T18:34:59.125Z,4.16
2022-12-05T18:37:28.191Z,4.06
2022-12-05T18:39:56.473Z,3.90
2022-12-05T18:42:23.358Z,3.93
2022-12-05T18:44:50.165Z,4.03
2022-12-05T18:47:16.945Z,4.13
2022-12-05T18:49:43.751Z,4.11
2022-12-05T18:52:10.576Z,4.06
2022-12-05T18:54:37.560Z,4.21
2022-12-05T18:57:04.317Z,4.24
2022-12-05T18:59:31.099Z,4.19
2022-12-05T19:02:00.540Z,4.13
2022-12-05T19:04:28.847Z,4.32
2022-12-05T19:06:58.825Z,4.34
2022-12-05T19:09:28.906Z,4.43
2022-12-05T19:11:58.073Z,4.45
2022-12-05T19:14:26.459Z,4.45
2022-12-05T19:16:59.986Z,4.36
2022-12-05T19:19:28.341Z,4.45
2022-12-05T19:21:55.537Z,4.48
2022-12-05T19:24:22.388Z,4.30
2022-12-05T19:26:49.135Z,4.42
2022-12-05T19:29:16.675Z,4.37
2022-12-05T19:31:43.960Z,4.37
2022-12-05T19:34:10.995Z,4.07
2022-12-05T19:36:42.271Z,4.05
2022-12-05T19:39:26.669Z,4.26
2022-12-05T19:41:55.266Z,4.26
2022-12-05T19:44:21.948Z,4.33
2022-12-05T19:46:49.254Z,4.27
2022-12-05T19:49:17.318Z,4.32
2022-12-05T19:51:44.417Z,4.37
2022-12-05T19:54:13.978Z,4.10
2022-12-05T19:56:41.052Z,4.04
2022-12-05T19:59:07.767Z,3.99
2022-12-05T20:01:40.360Z,3.81
2022-12-05T20:04:10.098Z,3.93
2022-12-05T20:06:42.638Z,4.00
2022-12-05T20:09:10.791Z,3.98
2022-12-05T20:11:43.762Z,4.13
2022-12-05T20:14:12.811Z,4.27
2022-12-05T20:16:40.253Z,4.35
2022-12-05T20:19:07.456Z,4.42
2022-12-05T20:21:35.232Z,4.38
2022-12-05T20:24:03.884Z,4.35
2022-12-05T20:26:37.299Z,4.34
2022-12-05T20:29:05.734Z,4.29
2022-12-05T20:31:35.658Z,4.15
2022-12-05T20:34:02.829Z,4.26
2022-12-05T20:36:32.191Z,4.30
2022-12-05T20:39:01.950Z,4.16
2022-12-05T20:41:28.877Z,4.19
2022-12-05T20:43:57.799Z,4.27
2022-12-05T20:46:25.296Z,4.26
2022-12-05T20:48:53.306Z,4.25
2022-12-05T20:51:25.323Z,4.30
2022-12-05T20:53:52.305Z,4.30
2022-12-05T20:56:28.371Z,4.37
2022-12-05T20:58:57.648Z,4.36
2022-12-05T21:01:25.843Z,4.41
2022-12-05T21:03:53.547Z,4.38
2022-12-05T21:06:26.277Z,4.31
2022-12-05T21:08:54.388Z,4.18
2022-12-05T21:11:22.327Z,4.05
2022-12-05T21:13:49.189Z,3.93
2022-12-05T21:16:19.246Z,4.08
2022-12-05T21:18:46.879Z,4.12
2022-12-05T21:21:19.004Z,4.15
2022-12-05T21:23:47.822Z,4.16
2022-12-05T21:26:17.363Z,4.21
2022-12-05T21:28:45.588Z,4.07
2022-12-05T21:31:14.591Z,4.15
2022-12-05T21:33:43.068Z,4.12
2022-12-05T21:36:10.422Z,4.05
2022-12-05T21:38:37.068Z,3.91
2022-12-05T21:41:04.819Z,3.98
2022-12-05T21:43:33.265Z,3.94
2022-12-05T21:46:00.016Z,3.88
2022-12-05T21:48:26.761Z,3.79
2022-12-05T21:50:54.125Z,3.94
2022-12-05T21:53:21.492Z,4.00
2022-12-05T21:55:48.432Z,4.02
2022-12-05T21:58:15.669Z,4.08
2022-12-05T22:00:43.026Z,4.13
2022-12-05T22:03:14.619Z,4.21
2022-12-05T22:05:41.355Z,4.18
2022-12-05T22:08:08.401Z,4.14
2022-12-05T22:10:35.622Z,4.18
2022-12-05T22:13:02.403Z,4.18
2022-12-05T22:15:29.112Z,4.28
2022-12-05T22:17:55.787Z,4.32
2022-12-05T22:20:22.780Z,4.33
2022-12-05T22:22:49.407Z,4.25
2022-12-05T22:25:16.172Z,3.98
2022-12-05T22:27:42.854Z,3.84
2022-12-05T22:30:09.959Z,3.87
2022-12-05T22:32:36.582Z,3.62
2022-12-05T22:35:04.541Z,3.67
2022-12-05T22:37:31.776Z,3.59
2022-12-05T22:39:59.008Z,3.84
2022-12-05T22:42:27.414Z,3.71
2022-12-05T22:44:54.070Z,3.64
2022-12-05T22:47:20.757Z,3.51
2022-12-05T22:49:47.514Z,3.75
2022-12-05T22:52:14.914Z,3.80
2022-12-05T22:54:43.879Z,3.81
2022-12-05T22:57:10.525Z,3.92
2022-12-05T22:59:37.293Z,3.85
2022-12-05T23:02:04.009Z,3.89
2022-12-05T23:04:30.763Z,3.95
2022-12-05T23:06:57.412Z,3.99
2022-12-05T23:09:24.020Z,3.98
2022-12-05T23:11:50.728Z,4.02
2022-12-05T23:14:17.420Z,4.00
2022-12-05T23:16:44.295Z,4.04
2022-12-05T23:19:11.041Z,3.96
2022-12-05T23:21:40.118Z,3.99
2022-12-05T23:24:09.315Z,4.02
2022-12-05T23:26:39.607Z,4.04
2022-12-05T23:29:06.670Z,4.06
2022-12-05T23:31:33.937Z,4.07
2022-12-05T23:34:03.642Z,3.91
2022-12-05T23:36:32.404Z,3.90
2022-12-05T23:38:59.406Z,3.77
2022-12-05T23:41:26.434Z,3.72
2022-12-05T23:43:53.946Z,3.70
2022-12-05T23:46:24.791Z,3.61
2022-12-05T23:48:52.639Z,3.69
2022-12-05T23:51:22.507Z,3.78
2022-12-05T23:53:54.210Z,3.64
2022-12-05T23:56:24.628Z,3.74
2022-12-05T23:58:51.882Z,3.76
